sensor_id;sensor_type;location;lat;lon;timestamp;P1;durP1;ratioP1;P2;durP2;ratioP2
20627;SDS011;10473;42.734;24.258;2024-03-23T00:53:58;2.03;;;1.83;;
20627;SDS011;10473;42.734;24.258;2024-03-23T00:56:23;2.67;;;1.52;;
20627;SDS011;10473;42.734;24.258;2024-03-23T00:58:49;3.40;;;1.90;;
20627;SDS011;10473;42.734;24.258;2024-03-23T01:01:15;2.63;;;1.95;;
20627;SDS011;10473;42.734;24.258;2024-03-23T01:03:41;3.22;;;2.53;;
20627;SDS011;10473;42.734;24.258;2024-03-23T01:06:06;4.20;;;2.58;;
20627;SDS011;10473;42.734;24.258;2024-03-23T01:08:32;6.82;;;3.10;;
20627;SDS011;10473;42.734;24.258;2024-03-23T01:10:58;5.20;;;2.95;;
20627;SDS011;10473;42.734;24.258;2024-03-23T01:13:25;12.05;;;3.47;;
20627;SDS011;10473;42.734;24.258;2024-03-23T01:15:52;9.65;;;4.57;;
20627;SDS011;10473;42.734;24.258;2024-03-23T01:18:18;6.65;;;5.05;;
20627;SDS011;10473;42.734;24.258;2024-03-23T01:20:44;5.80;;;3.97;;
20627;SDS011;10473;42.734;24.258;2024-03-23T01:23:11;3.63;;;3.28;;
20627;SDS011;10473;42.734;24.258;2024-03-23T01:25:37;1.67;;;1.58;;
20627;SDS011;10473;42.734;24.258;2024-03-23T01:28:02;3.55;;;2.65;;
20627;SDS011;10473;42.734;24.258;2024-03-23T01:30:28;2.92;;;2.45;;
20627;SDS011;10473;42.734;24.258;2024-03-23T01:32:53;3.10;;;2.25;;
20627;SDS011;10473;42.734;24.258;2024-03-23T01:35:19;2.88;;;2.08;;
20627;SDS011;10473;42.734;24.258;2024-03-23T01:37:44;1.65;;;1.42;;
20627;SDS011;10473;42.734;24.258;2024-03-23T01:40:10;3.67;;;2.75;;
20627;SDS011;10473;42.734;24.258;2024-03-23T01:42:38;3.95;;;2.72;;
20627;SDS011;10473;42.734;24.258;2024-03-23T01:45:06;4.53;;;2.15;;
20627;SDS011;10473;42.734;24.258;2024-03-23T01:47:33;2.45;;;1.33;;
20627;SDS011;10473;42.734;24.258;2024-03-23T01:49:58;2.30;;;2.10;;
20627;SDS011;10473;42.734;24.258;2024-03-23T01:52:24;3.22;;;1.83;;
20627;SDS011;10473;42.734;24.258;2024-03-23T01:54:50;8.85;;;3.97;;
20627;SDS011;10473;42.734;24.258;2024-03-23T01:57:16;11.40;;;4.35;;
20627;SDS011;10473;42.734;24.258;2024-03-23T01:59:42;5.20;;;4.00;;
20627;SDS011;10473;42.734;24.258;2024-03-23T02:02:08;5.85;;;3.58;;
20627;SDS011;10473;42.734;24.258;2024-03-23T02:04:33;6.90;;;3.50;;
20627;SDS011;10473;42.734;24.258;2024-03-23T02:06:59;4.53;;;3.35;;
20627;SDS011;10473;42.734;24.258;2024-03-23T02:09:24;5.50;;;4.03;;
20627;SDS011;10473;42.734;24.258;2024-03-23T02:11:50;5.45;;;3.65;;
20627;SDS011;10473;42.734;24.258;2024-03-23T02:14:16;4.53;;;3.50;;
20627;SDS011;10473;42.734;24.258;2024-03-23T02:16:41;4.68;;;3.30;;
20627;SDS011;10473;42.734;24.258;2024-03-23T02:19:08;3.25;;;2.85;;
20627;SDS011;10473;42.734;24.258;2024-03-23T02:21:33;3.00;;;2.47;;
20627;SDS011;10473;42.734;24.258;2024-03-23T02:23:59;2.28;;;2.08;;
20627;SDS011;10473;42.734;24.258;2024-03-23T02:26:25;4.93;;;3.20;;
20627;SDS011;10473;42.734;24.258;2024-03-23T02:28:51;5.30;;;2.92;;
20627;SDS011;10473;42.734;24.258;2024-03-23T02:31:16;2.67;;;2.47;;
20627;SDS011;10473;42.734;24.258;2024-03-23T02:33:42;2.83;;;2.00;;
20627;SDS011;10473;42.734;24.258;2024-03-23T02:36:07;4.93;;;2.40;;
20627;SDS011;10473;42.734;24.258;2024-03-23T02:38:33;3.00;;;2.13;;
20627;SDS011;10473;42.734;24.258;2024-03-23T02:41:04;3.05;;;2.30;;
20627;SDS011;10473;42.734;24.258;2024-03-23T02:43:30;4.60;;;1.75;;
20627;SDS011;10473;42.734;24.258;2024-03-23T02:45:55;3.13;;;2.33;;
20627;SDS011;10473;42.734;24.258;2024-03-23T02:48:21;2.85;;;1.83;;
20627;SDS011;10473;42.734;24.258;2024-03-23T02:50:46;3.67;;;2.60;;
20627;SDS011;10473;42.734;24.258;2024-03-23T02:53:12;2.80;;;2.00;;
20627;SDS011;10473;42.734;24.258;2024-03-23T02:55:37;3.78;;;1.60;;
20627;SDS011;10473;42.734;24.258;2024-03-23T02:58:03;6.82;;;2.67;;
20627;SDS011;10473;42.734;24.258;2024-03-23T03:00:28;6.38;;;3.33;;
20627;SDS011;10473;42.734;24.258;2024-03-23T03:02:54;5.53;;;3.35;;
20627;SDS011;10473;42.734;24.258;2024-03-23T03:05:20;5.97;;;2.75;;
20627;SDS011;10473;42.734;24.258;2024-03-23T03:07:46;4.65;;;2.65;;
20627;SDS011;10473;42.734;24.258;2024-03-23T03:10:11;3.35;;;2.03;;
20627;SDS011;10473;42.734;24.258;2024-03-23T03:12:37;2.30;;;2.05;;
20627;SDS011;10473;42.734;24.258;2024-03-23T03:15:03;2.85;;;2.10;;
20627;SDS011;10473;42.734;24.258;2024-03-23T03:17:30;2.67;;;2.03;;
20627;SDS011;10473;42.734;24.258;2024-03-23T03:19:55;1.98;;;1.70;;
20627;SDS011;10473;42.734;24.258;2024-03-23T03:22:22;2.45;;;2.17;;
20627;SDS011;10473;42.734;24.258;2024-03-23T03:24:48;1.80;;;1.70;;
20627;SDS011;10473;42.734;24.258;2024-03-23T03:27:13;3.78;;;2.97;;
20627;SDS011;10473;42.734;24.258;2024-03-23T03:29:39;4.13;;;2.63;;
20627;SDS011;10473;42.734;24.258;2024-03-23T03:32:05;4.30;;;2.50;;
20627;SDS011;10473;42.734;24.258;2024-03-23T03:34:31;2.33;;;1.88;;
20627;SDS011;10473;42.734;24.258;2024-03-23T03:36:56;2.50;;;2.30;;
20627;SDS011;10473;42.734;24.258;2024-03-23T03:39:22;2.72;;;2.22;;
20627;SDS011;10473;42.734;24.258;2024-03-23T03:41:48;3.20;;;2.15;;
20627;SDS011;10473;42.734;24.258;2024-03-23T03:44:14;4.80;;;4.18;;
20627;SDS011;10473;42.734;24.258;2024-03-23T03:46:40;4.10;;;2.92;;
20627;SDS011;10473;42.734;24.258;2024-03-23T03:49:05;4.28;;;2.20;;
20627;SDS011;10473;42.734;24.258;2024-03-23T03:51:31;4.38;;;3.35;;
20627;SDS011;10473;42.734;24.258;2024-03-23T03:53:56;3.22;;;2.95;;
20627;SDS011;10473;42.734;24.258;2024-03-23T03:56:22;4.70;;;3.00;;
20627;SDS011;10473;42.734;24.258;2024-03-23T03:58:48;3.65;;;2.88;;
20627;SDS011;10473;42.734;24.258;2024-03-23T04:01:13;3.05;;;2.85;;
20627;SDS011;10473;42.734;24.258;2024-03-23T04:03:39;5.15;;;2.53;;
20627;SDS011;10473;42.734;24.258;2024-03-23T04:06:08;2.67;;;2.45;;
20627;SDS011;10473;42.734;24.258;2024-03-23T04:08:37;6.80;;;3.63;;
20627;SDS011;10473;42.734;24.258;2024-03-23T04:11:03;2.85;;;2.55;;
20627;SDS011;10473;42.734;24.258;2024-03-23T04:13:28;4.65;;;2.88;;
20627;SDS011;10473;42.734;24.258;2024-03-23T04:15:54;5.78;;;2.75;;
20627;SDS011;10473;42.734;24.258;2024-03-23T04:18:20;5.75;;;3.72;;
20627;SDS011;10473;42.734;24.258;2024-03-23T04:20:47;9.35;;;5.63;;
20627;SDS011;10473;42.734;24.258;2024-03-23T04:23:13;6.82;;;4.88;;
20627;SDS011;10473;42.734;24.258;2024-03-23T04:25:39;6.45;;;4.78;;
20627;SDS011;10473;42.734;24.258;2024-03-23T04:28:04;5.82;;;4.53;;
20627;SDS011;10473;42.734;24.258;2024-03-23T04:30:30;7.18;;;4.32;;
20627;SDS011;10473;42.734;24.258;2024-03-23T04:32:57;7.75;;;4.93;;
20627;SDS011;10473;42.734;24.258;2024-03-23T04:35:23;6.20;;;4.60;;
20627;SDS011;10473;42.734;24.258;2024-03-23T04:37:55;8.18;;;4.55;;
20627;SDS011;10473;42.734;24.258;2024-03-23T04:40:20;8.40;;;4.30;;
20627;SDS011;10473;42.734;24.258;2024-03-23T04:42:46;5.63;;;3.83;;
20627;SDS011;10473;42.734;24.258;2024-03-23T04:45:12;6.72;;;5.15;;
20627;SDS011;10473;42.734;24.258;2024-03-23T04:47:38;8.02;;;4.78;;
20627;SDS011;10473;42.734;24.258;2024-03-23T04:50:04;6.10;;;4.15;;
20627;SDS011;10473;42.734;24.258;2024-03-23T04:52:30;8.23;;;4.50;;
20627;SDS011;10473;42.734;24.258;2024-03-23T04:54:56;9.07;;;4.70;;
20627;SDS011;10473;42.734;24.258;2024-03-23T04:57:21;4.38;;;3.45;;
20627;SDS011;10473;42.734;24.258;2024-03-23T04:59:47;24.52;;;11.63;;
20627;SDS011;10473;42.734;24.258;2024-03-23T05:02:13;9.23;;;6.60;;
20627;SDS011;10473;42.734;24.258;2024-03-23T05:04:39;23.13;;;10.25;;
20627;SDS011;10473;42.734;24.258;2024-03-23T05:07:06;39.35;;;17.40;;
20627;SDS011;10473;42.734;24.258;2024-03-23T05:09:34;23.27;;;13.15;;
20627;SDS011;10473;42.734;24.258;2024-03-23T05:12:00;21.27;;;9.70;;
20627;SDS011;10473;42.734;24.258;2024-03-23T05:14:26;20.17;;;9.73;;
20627;SDS011;10473;42.734;24.258;2024-03-23T05:16:52;26.30;;;10.55;;
20627;SDS011;10473;42.734;24.258;2024-03-23T05:19:18;25.23;;;10.13;;
20627;SDS011;10473;42.734;24.258;2024-03-23T05:21:45;9.23;;;4.53;;
20627;SDS011;10473;42.734;24.258;2024-03-23T05:24:11;10.13;;;5.95;;
20627;SDS011;10473;42.734;24.258;2024-03-23T05:26:37;10.50;;;6.30;;
20627;SDS011;10473;42.734;24.258;2024-03-23T05:29:03;13.43;;;7.63;;
20627;SDS011;10473;42.734;24.258;2024-03-23T05:31:30;10.63;;;7.85;;
20627;SDS011;10473;42.734;24.258;2024-03-23T05:33:56;14.43;;;10.50;;
20627;SDS011;10473;42.734;24.258;2024-03-23T05:36:22;8.57;;;6.38;;
20627;SDS011;10473;42.734;24.258;2024-03-23T05:38:49;9.00;;;6.32;;
20627;SDS011;10473;42.734;24.258;2024-03-23T05:41:15;14.70;;;8.38;;
20627;SDS011;10473;42.734;24.258;2024-03-23T05:43:41;10.55;;;6.78;;
20627;SDS011;10473;42.734;24.258;2024-03-23T05:46:07;11.98;;;8.10;;
20627;SDS011;10473;42.734;24.258;2024-03-23T05:48:35;11.38;;;8.35;;
20627;SDS011;10473;42.734;24.258;2024-03-23T05:51:01;12.77;;;7.90;;
20627;SDS011;10473;42.734;24.258;2024-03-23T05:53:27;9.65;;;6.93;;
20627;SDS011;10473;42.734;24.258;2024-03-23T05:56:04;7.30;;;6.57;;
20627;SDS011;10473;42.734;24.258;2024-03-23T05:58:30;5.28;;;4.63;;
20627;SDS011;10473;42.734;24.258;2024-03-23T06:00:59;5.60;;;4.72;;
20627;SDS011;10473;42.734;24.258;2024-03-23T06:03:26;5.03;;;3.75;;
20627;SDS011;10473;42.734;24.258;2024-03-23T06:05:52;3.30;;;2.95;;
20627;SDS011;10473;42.734;24.258;2024-03-23T06:08:18;4.88;;;3.65;;
20627;SDS011;10473;42.734;24.258;2024-03-23T06:10:45;4.05;;;2.78;;
20627;SDS011;10473;42.734;24.258;2024-03-23T06:13:11;4.45;;;3.22;;
20627;SDS011;10473;42.734;24.258;2024-03-23T06:15:37;5.53;;;4.57;;
20627;SDS011;10473;42.734;24.258;2024-03-23T06:18:03;4.70;;;3.58;;
20627;SDS011;10473;42.734;24.258;2024-03-23T06:20:29;3.75;;;3.25;;
20627;SDS011;10473;42.734;24.258;2024-03-23T06:22:55;5.32;;;3.22;;
20627;SDS011;10473;42.734;24.258;2024-03-23T06:25:21;3.92;;;3.50;;
20627;SDS011;10473;42.734;24.258;2024-03-23T06:27:46;3.38;;;3.08;;
20627;SDS011;10473;42.734;24.258;2024-03-23T06:30:12;3.50;;;2.97;;
20627;SDS011;10473;42.734;24.258;2024-03-23T06:32:38;5.90;;;3.22;;
20627;SDS011;10473;42.734;24.258;2024-03-23T06:35:03;4.35;;;3.55;;
20627;SDS011;10473;42.734;24.258;2024-03-23T06:37:33;4.57;;;3.45;;
20627;SDS011;10473;42.734;24.258;2024-03-23T06:39:59;4.20;;;3.80;;
20627;SDS011;10473;42.734;24.258;2024-03-23T06:42:25;4.45;;;3.58;;
20627;SDS011;10473;42.734;24.258;2024-03-23T06:44:50;6.03;;;4.95;;
20627;SDS011;10473;42.734;24.258;2024-03-23T06:47:16;6.90;;;4.20;;
20627;SDS011;10473;42.734;24.258;2024-03-23T06:49:42;3.47;;;2.78;;
20627;SDS011;10473;42.734;24.258;2024-03-23T06:52:07;4.22;;;2.72;;
20627;SDS011;10473;42.734;24.258;2024-03-23T06:54:33;3.88;;;2.05;;
20627;SDS011;10473;42.734;24.258;2024-03-23T06:56:58;3.85;;;3.53;;
20627;SDS011;10473;42.734;24.258;2024-03-23T06:59:24;8.63;;;3.92;;
20627;SDS011;10473;42.734;24.258;2024-03-23T07:01:49;3.90;;;3.55;;
20627;SDS011;10473;42.734;24.258;2024-03-23T07:04:15;3.25;;;2.95;;
20627;SDS011;10473;42.734;24.258;2024-03-23T07:06:44;6.82;;;6.32;;
20627;SDS011;10473;42.734;24.258;2024-03-23T07:09:11;3.58;;;3.22;;
20627;SDS011;10473;42.734;24.258;2024-03-23T07:11:37;3.55;;;2.97;;
20627;SDS011;10473;42.734;24.258;2024-03-23T07:14:03;7.18;;;4.10;;
20627;SDS011;10473;42.734;24.258;2024-03-23T07:16:28;6.65;;;4.32;;
20627;SDS011;10473;42.734;24.258;2024-03-23T07:18:54;4.15;;;3.30;;
20627;SDS011;10473;42.734;24.258;2024-03-23T07:21:20;3.55;;;3.22;;
20627;SDS011;10473;42.734;24.258;2024-03-23T07:23:47;6.38;;;4.72;;
20627;SDS011;10473;42.734;24.258;2024-03-23T07:26:12;4.95;;;3.75;;
20627;SDS011;10473;42.734;24.258;2024-03-23T07:28:38;3.10;;;2.67;;
20627;SDS011;10473;42.734;24.258;2024-03-23T07:31:12;3.85;;;2.60;;
20627;SDS011;10473;42.734;24.258;2024-03-23T07:33:43;6.60;;;2.47;;
20627;SDS011;10473;42.734;24.258;2024-03-23T07:36:11;2.45;;;2.22;;
20627;SDS011;10473;42.734;24.258;2024-03-23T07:38:37;2.60;;;2.35;;
20627;SDS011;10473;42.734;24.258;2024-03-23T07:41:05;3.22;;;2.95;;
20627;SDS011;10473;42.734;24.258;2024-03-23T07:43:32;3.08;;;2.88;;
20627;SDS011;10473;42.734;24.258;2024-03-23T07:45:59;3.30;;;3.00;;
20627;SDS011;10473;42.734;24.258;2024-03-23T07:48:25;3.30;;;3.00;;
20627;SDS011;10473;42.734;24.258;2024-03-23T07:53:54;7.80;;;4.30;;
20627;SDS011;10473;42.734;24.258;2024-03-23T07:56:19;3.67;;;3.22;;
20627;SDS011;10473;42.734;24.258;2024-03-23T07:58:46;6.30;;;4.75;;
20627;SDS011;10473;42.734;24.258;2024-03-23T08:01:13;5.68;;;3.08;;
20627;SDS011;10473;42.734;24.258;2024-03-23T08:03:44;3.15;;;2.85;;
20627;SDS011;10473;42.734;24.258;2024-03-23T08:06:11;2.75;;;2.55;;
20627;SDS011;10473;42.734;24.258;2024-03-23T08:08:40;2.65;;;2.35;;
20627;SDS011;10473;42.734;24.258;2024-03-23T08:11:07;3.10;;;2.80;;
20627;SDS011;10473;42.734;24.258;2024-03-23T08:13:34;2.72;;;2.05;;
20627;SDS011;10473;42.734;24.258;2024-03-23T08:16:01;4.95;;;2.67;;
20627;SDS011;10473;42.734;24.258;2024-03-23T08:18:28;3.05;;;2.75;;
20627;SDS011;10473;42.734;24.258;2024-03-23T08:21:04;2.53;;;2.33;;
20627;SDS011;10473;42.734;24.258;2024-03-23T08:23:31;3.08;;;2.88;;
20627;SDS011;10473;42.734;24.258;2024-03-23T08:26:08;4.05;;;2.40;;
20627;SDS011;10473;42.734;24.258;2024-03-23T08:28:35;3.35;;;2.67;;
20627;SDS011;10473;42.734;24.258;2024-03-23T08:31:12;2.40;;;2.13;;
20627;SDS011;10473;42.734;24.258;2024-03-23T08:33:40;4.45;;;3.00;;
20627;SDS011;10473;42.734;24.258;2024-03-23T08:36:08;2.85;;;2.55;;
20627;SDS011;10473;42.734;24.258;2024-03-23T08:38:37;7.22;;;3.45;;
20627;SDS011;10473;42.734;24.258;2024-03-23T08:41:03;4.25;;;2.92;;
20627;SDS011;10473;42.734;24.258;2024-03-23T08:43:29;23.70;;;7.95;;
20627;SDS011;10473;42.734;24.258;2024-03-23T08:46:05;21.98;;;8.60;;
20627;SDS011;10473;42.734;24.258;2024-03-23T08:48:43;4.60;;;2.70;;
20627;SDS011;10473;42.734;24.258;2024-03-23T08:51:13;3.58;;;3.08;;
20627;SDS011;10473;42.734;24.258;2024-03-23T08:53:39;3.50;;;2.85;;
20627;SDS011;10473;42.734;24.258;2024-03-23T08:56:05;5.70;;;3.42;;
20627;SDS011;10473;42.734;24.258;2024-03-23T08:58:32;3.92;;;2.65;;
20627;SDS011;10473;42.734;24.258;2024-03-23T09:01:09;2.63;;;2.42;;
20627;SDS011;10473;42.734;24.258;2024-03-23T09:03:40;2.90;;;1.95;;
20627;SDS011;10473;42.734;24.258;2024-03-23T09:06:09;2.35;;;2.08;;
20627;SDS011;10473;42.734;24.258;2024-03-23T09:08:36;12.38;;;5.70;;
20627;SDS011;10473;42.734;24.258;2024-03-23T09:11:06;8.23;;;4.03;;
20627;SDS011;10473;42.734;24.258;2024-03-23T09:13:33;4.55;;;2.55;;
20627;SDS011;10473;42.734;24.258;2024-03-23T09:15:59;4.15;;;2.63;;
20627;SDS011;10473;42.734;24.258;2024-03-23T09:18:25;14.85;;;6.88;;
20627;SDS011;10473;42.734;24.258;2024-03-23T09:20:50;3.15;;;2.42;;
20627;SDS011;10473;42.734;24.258;2024-03-23T09:23:16;2.97;;;2.00;;
20627;SDS011;10473;42.734;24.258;2024-03-23T09:25:42;2.40;;;2.20;;
20627;SDS011;10473;42.734;24.258;2024-03-23T09:28:07;2.60;;;1.98;;
20627;SDS011;10473;42.734;24.258;2024-03-23T09:30:35;4.85;;;2.30;;
20627;SDS011;10473;42.734;24.258;2024-03-23T09:33:07;3.42;;;2.50;;
20627;SDS011;10473;42.734;24.258;2024-03-23T09:35:39;8.90;;;5.65;;
20627;SDS011;10473;42.734;24.258;2024-03-23T09:38:05;3.22;;;2.13;;
20627;SDS011;10473;42.734;24.258;2024-03-23T09:40:34;5.15;;;3.65;;
20627;SDS011;10473;42.734;24.258;2024-03-23T09:43:06;3.92;;;3.53;;
20627;SDS011;10473;42.734;24.258;2024-03-23T09:45:32;3.58;;;3.13;;
20627;SDS011;10473;42.734;24.258;2024-03-23T09:48:01;5.30;;;2.55;;
20627;SDS011;10473;42.734;24.258;2024-03-23T09:50:26;5.00;;;2.30;;
20627;SDS011;10473;42.734;24.258;2024-03-23T09:52:52;4.13;;;2.88;;
20627;SDS011;10473;42.734;24.258;2024-03-23T09:55:18;4.07;;;2.90;;
20627;SDS011;10473;42.734;24.258;2024-03-23T09:57:43;3.50;;;2.80;;
20627;SDS011;10473;42.734;24.258;2024-03-23T10:00:09;7.40;;;4.57;;
20627;SDS011;10473;42.734;24.258;2024-03-23T10:02:37;3.42;;;3.13;;
20627;SDS011;10473;42.734;24.258;2024-03-23T10:05:03;3.65;;;2.58;;
20627;SDS011;10473;42.734;24.258;2024-03-23T10:07:29;3.25;;;2.53;;
20627;SDS011;10473;42.734;24.258;2024-03-23T10:09:54;3.30;;;3.00;;
20627;SDS011;10473;42.734;24.258;2024-03-23T10:12:20;7.88;;;3.70;;
20627;SDS011;10473;42.734;24.258;2024-03-23T10:14:46;3.40;;;2.75;;
20627;SDS011;10473;42.734;24.258;2024-03-23T10:17:13;6.35;;;3.60;;
20627;SDS011;10473;42.734;24.258;2024-03-23T10:19:43;5.70;;;3.95;;
20627;SDS011;10473;42.734;24.258;2024-03-23T10:22:22;4.50;;;2.75;;
20627;SDS011;10473;42.734;24.258;2024-03-23T10:24:50;3.45;;;2.83;;
20627;SDS011;10473;42.734;24.258;2024-03-23T10:27:16;4.32;;;3.28;;
20627;SDS011;10473;42.734;24.258;2024-03-23T10:29:47;3.55;;;3.15;;
20627;SDS011;10473;42.734;24.258;2024-03-23T10:32:16;4.63;;;2.45;;
20627;SDS011;10473;42.734;24.258;2024-03-23T10:34:43;3.88;;;3.05;;
20627;SDS011;10473;42.734;24.258;2024-03-23T10:37:09;4.30;;;3.17;;
20627;SDS011;10473;42.734;24.258;2024-03-23T10:42:05;3.58;;;3.13;;
20627;SDS011;10473;42.734;24.258;2024-03-23T10:44:33;4.40;;;3.55;;
20627;SDS011;10473;42.734;24.258;2024-03-23T10:46:59;5.82;;;3.40;;
20627;SDS011;10473;42.734;24.258;2024-03-23T10:49:27;3.00;;;2.80;;
20627;SDS011;10473;42.734;24.258;2024-03-23T10:51:58;3.63;;;3.33;;
20627;SDS011;10473;42.734;24.258;2024-03-23T10:54:30;3.03;;;2.53;;
20627;SDS011;10473;42.734;24.258;2024-03-23T10:56:58;8.05;;;3.28;;
20627;SDS011;10473;42.734;24.258;2024-03-23T10:59:33;3.28;;;2.92;;
20627;SDS011;10473;42.734;24.258;2024-03-23T11:02:01;4.75;;;3.15;;
20627;SDS011;10473;42.734;24.258;2024-03-23T11:04:30;11.15;;;6.30;;
20627;SDS011;10473;42.734;24.258;2024-03-23T11:06:56;9.32;;;5.82;;
20627;SDS011;10473;42.734;24.258;2024-03-23T11:12:10;5.18;;;2.70;;
20627;SDS011;10473;42.734;24.258;2024-03-23T11:14:49;2.63;;;2.42;;
20627;SDS011;10473;42.734;24.258;2024-03-23T11:17:19;2.78;;;2.58;;
20627;SDS011;10473;42.734;24.258;2024-03-23T11:25:14;7.57;;;4.40;;
20627;SDS011;10473;42.734;24.258;2024-03-23T11:27:46;2.88;;;2.65;;
20627;SDS011;10473;42.734;24.258;2024-03-23T11:32:45;2.85;;;2.45;;
20627;SDS011;10473;42.734;24.258;2024-03-23T11:35:24;2.78;;;2.45;;
20627;SDS011;10473;42.734;24.258;2024-03-23T11:38:13;3.05;;;2.75;;
20627;SDS011;10473;42.734;24.258;2024-03-23T11:40:41;3.20;;;2.97;;
20627;SDS011;10473;42.734;24.258;2024-03-23T11:43:17;3.10;;;2.35;;
20627;SDS011;10473;42.734;24.258;2024-03-23T11:45:45;2.58;;;2.38;;
20627;SDS011;10473;42.734;24.258;2024-03-23T11:48:18;3.35;;;2.85;;
20627;SDS011;10473;42.734;24.258;2024-03-23T11:50:45;4.13;;;2.60;;
20627;SDS011;10473;42.734;24.258;2024-03-23T11:53:20;2.95;;;2.75;;
20627;SDS011;10473;42.734;24.258;2024-03-23T11:55:51;4.22;;;2.35;;
20627;SDS011;10473;42.734;24.258;2024-03-23T11:58:18;3.88;;;2.72;;
20627;SDS011;10473;42.734;24.258;2024-03-23T12:00:51;4.07;;;2.63;;
20627;SDS011;10473;42.734;24.258;2024-03-23T12:03:18;2.85;;;1.95;;
20627;SDS011;10473;42.734;24.258;2024-03-23T12:05:50;2.75;;;2.25;;
20627;SDS011;10473;42.734;24.258;2024-03-23T12:08:24;3.55;;;2.70;;
20627;SDS011;10473;42.734;24.258;2024-03-23T12:13:38;4.38;;;3.05;;
20627;SDS011;10473;42.734;24.258;2024-03-23T12:16:14;2.80;;;2.60;;
20627;SDS011;10473;42.734;24.258;2024-03-23T12:18:46;2.55;;;2.35;;
20627;SDS011;10473;42.734;24.258;2024-03-23T12:21:18;3.47;;;2.17;;
20627;SDS011;10473;42.734;24.258;2024-03-23T12:23:44;3.30;;;2.25;;
20627;SDS011;10473;42.734;24.258;2024-03-23T12:26:12;3.90;;;2.50;;
20627;SDS011;10473;42.734;24.258;2024-03-23T12:28:41;5.60;;;3.75;;
20627;SDS011;10473;42.734;24.258;2024-03-23T12:31:10;6.45;;;2.83;;
20627;SDS011;10473;42.734;24.258;2024-03-23T12:33:36;3.40;;;3.10;;
20627;SDS011;10473;42.734;24.258;2024-03-23T12:36:01;3.25;;;2.63;;
20627;SDS011;10473;42.734;24.258;2024-03-23T12:38:27;3.13;;;2.78;;
20627;SDS011;10473;42.734;24.258;2024-03-23T12:40:53;2.92;;;2.63;;
20627;SDS011;10473;42.734;24.258;2024-03-23T12:43:18;2.50;;;2.30;;
20627;SDS011;10473;42.734;24.258;2024-03-23T12:45:47;2.28;;;2.08;;
20627;SDS011;10473;42.734;24.258;2024-03-23T12:48:13;2.95;;;2.13;;
20627;SDS011;10473;42.734;24.258;2024-03-23T12:50:38;3.40;;;2.03;;
20627;SDS011;10473;42.734;24.258;2024-03-23T12:53:04;4.72;;;1.92;;
20627;SDS011;10473;42.734;24.258;2024-03-23T12:55:29;3.13;;;2.03;;
20627;SDS011;10473;42.734;24.258;2024-03-23T12:57:55;2.55;;;1.83;;
20627;SDS011;10473;42.734;24.258;2024-03-23T13:00:21;2.92;;;1.73;;
20627;SDS011;10473;42.734;24.258;2024-03-23T13:02:47;2.80;;;2.00;;
20627;SDS011;10473;42.734;24.258;2024-03-23T13:05:13;3.05;;;2.60;;
20627;SDS011;10473;42.734;24.258;2024-03-23T13:07:38;4.78;;;2.08;;
20627;SDS011;10473;42.734;24.258;2024-03-23T13:10:05;2.97;;;2.30;;
20627;SDS011;10473;42.734;24.258;2024-03-23T13:12:31;2.35;;;2.05;;
20627;SDS011;10473;42.734;24.258;2024-03-23T13:15:00;1.52;;;1.42;;
20627;SDS011;10473;42.734;24.258;2024-03-23T13:17:27;2.53;;;1.98;;
20627;SDS011;10473;42.734;24.258;2024-03-23T13:19:55;2.72;;;2.00;;
20627;SDS011;10473;42.734;24.258;2024-03-23T13:22:24;2.35;;;2.15;;
20627;SDS011;10473;42.734;24.258;2024-03-23T13:24:49;2.13;;;1.90;;
20627;SDS011;10473;42.734;24.258;2024-03-23T13:27:15;2.67;;;1.73;;
20627;SDS011;10473;42.734;24.258;2024-03-23T13:29:41;1.50;;;1.40;;
20627;SDS011;10473;42.734;24.258;2024-03-23T13:32:07;1.90;;;1.80;;
20627;SDS011;10473;42.734;24.258;2024-03-23T13:34:33;2.53;;;1.63;;
20627;SDS011;10473;42.734;24.258;2024-03-23T13:37:00;1.65;;;1.55;;
20627;SDS011;10473;42.734;24.258;2024-03-23T13:39:26;1.60;;;1.50;;
20627;SDS011;10473;42.734;24.258;2024-03-23T13:41:52;1.85;;;1.55;;
20627;SDS011;10473;42.734;24.258;2024-03-23T13:44:19;2.08;;;1.88;;
20627;SDS011;10473;42.734;24.258;2024-03-23T13:46:45;1.63;;;1.52;;
20627;SDS011;10473;42.734;24.258;2024-03-23T13:49:45;1.90;;;1.52;;
20627;SDS011;10473;42.734;24.258;2024-03-23T13:52:05;1.58;;;1.30;;
20627;SDS011;10473;42.734;24.258;2024-03-23T13:54:32;4.82;;;4.32;;
20627;SDS011;10473;42.734;24.258;2024-03-23T13:56:57;3.75;;;3.10;;
20627;SDS011;10473;42.734;24.258;2024-03-23T13:59:23;5.07;;;3.33;;
20627;SDS011;10473;42.734;24.258;2024-03-23T14:01:49;3.78;;;3.13;;
20627;SDS011;10473;42.734;24.258;2024-03-23T14:04:15;4.22;;;2.92;;
20627;SDS011;10473;42.734;24.258;2024-03-23T14:06:42;4.40;;;2.65;;
20627;SDS011;10473;42.734;24.258;2024-03-23T14:09:10;5.18;;;3.60;;
20627;SDS011;10473;42.734;24.258;2024-03-23T14:11:36;5.85;;;4.43;;
20627;SDS011;10473;42.734;24.258;2024-03-23T14:14:02;4.03;;;2.90;;
20627;SDS011;10473;42.734;24.258;2024-03-23T14:16:29;5.32;;;3.25;;
20627;SDS011;10473;42.734;24.258;2024-03-23T14:18:55;2.85;;;2.58;;
20627;SDS011;10473;42.734;24.258;2024-03-23T14:21:20;5.00;;;3.70;;
20627;SDS011;10473;42.734;24.258;2024-03-23T14:23:46;5.55;;;2.95;;
20627;SDS011;10473;42.734;24.258;2024-03-23T14:26:11;5.25;;;3.45;;
20627;SDS011;10473;42.734;24.258;2024-03-23T14:28:37;5.35;;;3.53;;
20627;SDS011;10473;42.734;24.258;2024-03-23T14:31:04;4.95;;;3.88;;
20627;SDS011;10473;42.734;24.258;2024-03-23T14:33:35;4.25;;;2.97;;
20627;SDS011;10473;42.734;24.258;2024-03-23T14:36:06;4.15;;;3.47;;
20627;SDS011;10473;42.734;24.258;2024-03-23T14:38:32;4.40;;;3.75;;
20627;SDS011;10473;42.734;24.258;2024-03-23T14:40:58;5.43;;;3.13;;
20627;SDS011;10473;42.734;24.258;2024-03-23T14:43:25;3.65;;;3.35;;
20627;SDS011;10473;42.734;24.258;2024-03-23T14:48:32;4.38;;;3.55;;
20627;SDS011;10473;42.734;24.258;2024-03-23T14:50:59;4.13;;;3.70;;
20627;SDS011;10473;42.734;24.258;2024-03-23T14:53:27;4.32;;;3.65;;
20627;SDS011;10473;42.734;24.258;2024-03-23T14:55:55;5.80;;;4.05;;
20627;SDS011;10473;42.734;24.258;2024-03-23T14:58:21;5.03;;;3.67;;
20627;SDS011;10473;42.734;24.258;2024-03-23T15:00:48;3.42;;;3.13;;
20627;SDS011;10473;42.734;24.258;2024-03-23T15:03:17;3.63;;;3.30;;
20627;SDS011;10473;42.734;24.258;2024-03-23T15:05:51;3.30;;;2.40;;
20627;SDS011;10473;42.734;24.258;2024-03-23T15:08:18;3.90;;;3.53;;
20627;SDS011;10473;42.734;24.258;2024-03-23T15:10:43;3.42;;;2.38;;
20627;SDS011;10473;42.734;24.258;2024-03-23T15:13:09;10.48;;;4.88;;
20627;SDS011;10473;42.734;24.258;2024-03-23T15:15:38;7.90;;;4.45;;
20627;SDS011;10473;42.734;24.258;2024-03-23T15:18:09;5.65;;;3.72;;
20627;SDS011;10473;42.734;24.258;2024-03-23T15:20:35;5.65;;;4.28;;
20627;SDS011;10473;42.734;24.258;2024-03-23T15:23:04;5.85;;;4.15;;
20627;SDS011;10473;42.734;24.258;2024-03-23T15:25:30;9.75;;;4.63;;
20627;SDS011;10473;42.734;24.258;2024-03-23T15:27:56;6.32;;;2.97;;
20627;SDS011;10473;42.734;24.258;2024-03-23T15:30:23;6.28;;;3.42;;
20627;SDS011;10473;42.734;24.258;2024-03-23T15:32:49;5.35;;;3.40;;
20627;SDS011;10473;42.734;24.258;2024-03-23T15:35:15;6.97;;;3.85;;
20627;SDS011;10473;42.734;24.258;2024-03-23T15:37:40;5.28;;;3.67;;
20627;SDS011;10473;42.734;24.258;2024-03-23T15:40:09;6.22;;;4.38;;
20627;SDS011;10473;42.734;24.258;2024-03-23T15:42:35;8.43;;;5.45;;
20627;SDS011;10473;42.734;24.258;2024-03-23T15:45:00;3.92;;;3.63;;
20627;SDS011;10473;42.734;24.258;2024-03-23T15:47:28;3.72;;;2.70;;